createdAt,value
2019-04-14T00:04:52.948Z,12.30
2019-04-14T00:10:02.856Z,11.81
2019-04-14T00:15:21.133Z,13.06
2019-04-14T00:20:18.653Z,12.96
2019-04-14T00:25:28.264Z,11.38
2019-04-14T00:30:35.796Z,12.77
2019-04-14T00:35:44.935Z,12.60
2019-04-14T00:40:53.992Z,12.64
2019-04-14T00:46:02.589Z,13.47
2019-04-14T00:51:09.783Z,13.91
2019-04-14T00:56:19.460Z,13.29
2019-04-14T01:01:27.048Z,12.55
2019-04-14T01:06:36.140Z,13.49
2019-04-14T01:11:44.960Z,12.62
2019-04-14T01:16:53.871Z,12.56
2019-04-14T01:22:03.211Z,12.76
2019-04-14T01:27:12.202Z,13.07
2019-04-14T01:32:19.742Z,13.09
2019-04-14T01:37:29.101Z,14.48
2019-04-14T01:42:37.703Z,15.15
2019-04-14T01:47:45.262Z,14.63
2019-04-14T01:52:54.454Z,14.88
2019-04-14T01:58:03.279Z,14.08
2019-04-14T02:03:12.789Z,13.95
2019-04-14T02:08:20.329Z,12.90
2019-04-14T02:13:31.119Z,12.60
2019-04-14T02:18:38.828Z,12.46
2019-04-14T02:23:47.707Z,12.60
2019-04-14T02:28:57.179Z,12.92
2019-04-14T02:39:38.538Z,13.10
2019-04-14T02:49:56.183Z,13.66
2019-04-14T03:00:18.395Z,13.31
2019-04-14T03:05:16.101Z,12.55
2019-04-14T03:15:39.686Z,12.60
2019-04-14T03:20:40.025Z,12.23
2019-04-14T03:25:55.303Z,12.04
2019-04-14T03:31:25.993Z,12.37
2019-04-14T03:36:43.277Z,12.49
2019-04-14T03:41:27.387Z,12.79
2019-04-14T03:56:20.144Z,12.30
2019-04-14T04:01:28.064Z,11.79
2019-04-14T04:06:37.822Z,12.79
2019-04-14T04:11:45.562Z,12.76
2019-04-14T04:16:55.126Z,12.40
2019-04-14T04:22:02.736Z,14.34
2019-04-14T04:27:11.607Z,13.54
2019-04-14T04:32:20.746Z,14.18
2019-04-14T04:37:30.081Z,14.05
2019-04-14T04:42:37.823Z,14.38
2019-04-14T04:47:46.984Z,14.65
2019-04-14T04:52:56.186Z,15.31
2019-04-14T04:58:03.963Z,15.44
2019-04-14T05:03:12.839Z,16.26
2019-04-14T05:08:21.765Z,15.02
2019-04-14T05:13:31.336Z,16.18
2019-04-14T05:18:39.863Z,17.15
2019-04-14T05:23:47.471Z,16.48
2019-04-14T05:28:56.989Z,16.26
2019-04-14T05:34:04.718Z,15.94
2019-04-14T05:39:13.628Z,17.41
2019-04-14T05:44:23.122Z,15.49
2019-04-14T05:49:39.119Z,15.88
2019-04-14T05:54:40.349Z,15.86
2019-04-14T05:59:48.397Z,15.00
2019-04-14T06:04:57.097Z,15.77
2019-04-14T06:10:04.599Z,15.28
2019-04-14T06:15:13.484Z,15.44
2019-04-14T06:20:22.353Z,15.15
2019-04-14T06:25:31.233Z,16.31
2019-04-14T06:30:40.175Z,15.82
2019-04-14T06:35:49.039Z,16.77
2019-04-14T06:40:57.966Z,16.36
2019-04-14T06:46:06.819Z,17.07
2019-04-14T06:51:15.672Z,16.68
2019-04-14T06:56:24.561Z,17.55
2019-04-14T07:01:33.458Z,17.81
2019-04-14T07:06:42.288Z,16.80
2019-04-14T07:11:51.176Z,17.46
2019-04-14T07:17:00.017Z,17.46
2019-04-14T07:22:08.898Z,17.41
2019-04-14T07:27:17.772Z,17.48
2019-04-14T07:32:26.639Z,17.84
2019-04-14T07:37:35.499Z,18.45
2019-04-14T07:42:44.381Z,18.33
2019-04-14T07:47:53.290Z,17.07
2019-04-14T07:53:02.136Z,18.15
2019-04-14T07:58:11.010Z,18.26
2019-04-14T08:03:19.919Z,17.92
2019-04-14T08:08:28.768Z,17.84
2019-04-14T08:13:37.665Z,17.51
2019-04-14T08:18:46.543Z,16.35
2019-04-14T08:23:55.425Z,15.62
2019-04-14T08:29:04.318Z,15.41
2019-04-14T08:34:13.203Z,15.73
2019-04-14T08:39:22.084Z,10.65
2019-04-14T08:44:30.969Z,12.54
2019-04-14T08:49:39.850Z,15.23
2019-04-14T08:54:48.712Z,17.03
2019-04-14T08:59:57.574Z,17.21
2019-04-14T09:05:06.472Z,16.20
2019-04-14T09:10:15.323Z,15.58
2019-04-14T09:15:24.182Z,14.05
2019-04-14T09:20:33.067Z,12.39
2019-04-14T09:25:41.939Z,12.85
2019-04-14T09:30:50.808Z,11.65
2019-04-14T09:35:59.663Z,11.98
2019-04-14T09:41:08.535Z,12.45
2019-04-14T09:46:17.431Z,11.38
2019-04-14T09:51:26.411Z,12.22
2019-04-14T09:56:35.297Z,12.56
2019-04-14T10:01:44.212Z,12.04
2019-04-14T10:06:53.099Z,11.94
2019-04-14T10:12:01.978Z,12.06
2019-04-14T10:17:10.813Z,11.76
2019-04-14T10:22:19.837Z,10.57
2019-04-14T10:27:28.803Z,12.11
2019-04-14T10:32:37.703Z,11.16
2019-04-14T10:37:46.601Z,11.36
2019-04-14T10:42:55.493Z,10.60
2019-04-14T10:48:04.468Z,10.39
2019-04-14T10:53:13.352Z,10.10
2019-04-14T10:58:22.232Z,10.38
2019-04-14T11:03:31.097Z,9.68
2019-04-14T11:08:39.976Z,8.63
2019-04-14T11:13:48.871Z,8.41
2019-04-14T11:18:57.751Z,10.12
2019-04-14T11:24:06.668Z,10.22
2019-04-14T11:29:15.559Z,9.85
2019-04-14T11:34:24.491Z,8.89
2019-04-14T11:39:33.356Z,8.32
2019-04-14T11:44:42.216Z,9.42
2019-04-14T11:49:51.084Z,9.07
2019-04-14T11:55:00.003Z,8.73
2019-04-14T12:00:08.825Z,9.20
2019-04-14T12:05:17.747Z,9.30
2019-04-14T12:10:26.667Z,9.29
2019-04-14T12:15:35.579Z,8.84
2019-04-14T12:20:44.467Z,8.64
2019-04-14T12:26:04.635Z,8.61
2019-04-14T12:31:02.048Z,8.55
2019-04-14T12:36:10.693Z,9.10
2019-04-14T12:41:19.811Z,8.57
2019-04-14T12:46:28.484Z,8.78
2019-04-14T12:51:37.349Z,8.81
2019-04-14T12:56:46.206Z,7.98
2019-04-14T13:01:55.103Z,8.23
2019-04-14T13:07:03.948Z,8.41
2019-04-14T13:12:12.808Z,8.49
2019-04-14T13:17:21.652Z,8.62
2019-04-14T13:22:34.250Z,8.52
2019-04-14T13:27:38.987Z,8.29
2019-04-14T13:32:47.844Z,7.48
2019-04-14T13:37:56.719Z,8.07
2019-04-14T13:43:05.607Z,8.61
2019-04-14T13:48:14.508Z,7.77
2019-04-14T13:53:23.396Z,7.85
2019-04-14T13:58:32.339Z,7.67
2019-04-14T14:03:41.206Z,7.64
2019-04-14T14:08:50.131Z,8.15
2019-04-14T14:13:59.003Z,7.78
2019-04-14T14:19:07.891Z,8.58
2019-04-14T14:24:16.908Z,10.87
2019-04-14T14:29:25.788Z,9.84
2019-04-14T14:34:34.645Z,10.08
2019-04-14T14:39:43.515Z,9.42
2019-04-14T14:44:52.410Z,9.71
2019-04-14T14:50:01.254Z,9.34
2019-04-14T14:55:10.173Z,9.31
2019-04-14T15:00:19.053Z,8.43
2019-04-14T15:05:27.925Z,8.76
2019-04-14T15:10:36.819Z,9.54
2019-04-14T15:15:45.762Z,8.76
2019-04-14T15:20:54.612Z,9.00
2019-04-14T15:26:03.512Z,8.79
2019-04-14T15:31:12.391Z,8.20
2019-04-14T15:36:21.253Z,8.35
2019-04-14T15:41:30.131Z,8.54
2019-04-14T15:46:39.000Z,8.69
2019-04-14T15:51:47.868Z,8.80
2019-04-14T15:56:56.739Z,7.99
2019-04-14T16:02:05.600Z,7.84
2019-04-14T16:07:14.477Z,9.18
2019-04-14T16:12:23.343Z,10.30
2019-04-14T16:17:32.196Z,10.96
2019-04-14T16:22:41.044Z,11.99
2019-04-14T16:27:49.909Z,10.44
2019-04-14T16:32:58.823Z,11.63
2019-04-14T16:38:07.691Z,11.19
2019-04-14T16:43:16.557Z,9.63
2019-04-14T16:48:25.435Z,8.86
2019-04-14T16:53:34.301Z,8.64
2019-04-14T16:58:43.175Z,8.48
2019-04-14T17:03:52.081Z,7.70
2019-04-14T17:09:00.958Z,7.45
2019-04-14T17:14:09.801Z,7.15
2019-04-14T17:19:18.715Z,8.17
2019-04-14T17:24:27.582Z,8.30
2019-04-14T17:29:36.467Z,7.47
2019-04-14T17:34:45.375Z,7.97
2019-04-14T17:39:54.277Z,8.36
2019-04-14T17:45:03.146Z,8.64
2019-04-14T17:50:12.028Z,8.25
2019-04-14T17:55:20.915Z,8.45
2019-04-14T18:00:29.773Z,9.46
2019-04-14T18:05:38.639Z,8.19
2019-04-14T18:10:47.501Z,8.52
2019-04-14T18:15:56.372Z,10.05
2019-04-14T18:21:05.247Z,11.66
2019-04-14T18:26:14.134Z,12.01
2019-04-14T18:31:22.992Z,12.22
2019-04-14T18:36:31.935Z,10.72
2019-04-14T18:41:40.807Z,10.05
2019-04-14T18:46:49.695Z,10.73
2019-04-14T18:51:58.591Z,9.61
2019-04-14T18:57:07.560Z,9.94
2019-04-14T19:02:16.403Z,9.63
2019-04-14T19:07:25.303Z,9.52
2019-04-14T19:12:34.173Z,9.81
2019-04-14T19:17:43.100Z,9.62
2019-04-14T19:22:51.952Z,9.88
2019-04-14T19:28:00.817Z,9.93
2019-04-14T19:33:09.691Z,10.83
2019-04-14T19:38:18.725Z,10.09
2019-04-14T19:43:27.574Z,10.08
2019-04-14T19:48:36.475Z,10.86
2019-04-14T19:53:45.363Z,13.11
2019-04-14T19:58:54.190Z,13.18
2019-04-14T20:04:03.075Z,12.99
2019-04-14T20:09:11.943Z,12.68
2019-04-14T20:14:20.863Z,12.76
2019-04-14T20:19:29.720Z,12.20
2019-04-14T20:24:38.678Z,12.78
2019-04-14T20:29:47.598Z,12.77
2019-04-14T20:34:56.443Z,12.93
2019-04-14T20:40:05.367Z,12.85
2019-04-14T20:45:14.304Z,11.68
2019-04-14T20:50:23.163Z,12.22
2019-04-14T20:55:32.043Z,11.73
2019-04-14T21:00:40.942Z,12.13
2019-04-14T21:05:51.494Z,11.54
2019-04-14T21:10:58.220Z,11.72
2019-04-14T21:16:12.778Z,11.86
2019-04-14T21:21:15.488Z,11.27
2019-04-14T21:26:26.367Z,12.30
2019-04-14T21:31:32.879Z,11.75
2019-04-14T21:36:41.735Z,12.71
2019-04-14T21:41:50.687Z,12.21
2019-04-14T21:46:59.536Z,12.28
2019-04-14T21:52:08.393Z,12.21
2019-04-14T21:57:17.233Z,11.87
2019-04-14T22:02:26.157Z,11.71
2019-04-14T22:07:35.020Z,11.33
2019-04-14T22:12:43.884Z,12.00
2019-04-14T22:17:52.804Z,12.00
2019-04-14T22:23:01.666Z,11.18
2019-04-14T22:28:10.562Z,11.33
2019-04-14T22:33:19.415Z,10.54
2019-04-14T22:38:28.299Z,10.19
2019-04-14T22:43:37.181Z,11.15
2019-04-14T22:48:46.049Z,10.45
2019-04-14T22:53:54.904Z,11.02
2019-04-14T22:59:03.843Z,11.47
2019-04-14T23:04:12.714Z,11.31
2019-04-14T23:09:21.621Z,11.20
2019-04-14T23:14:30.487Z,10.71
2019-04-14T23:19:39.395Z,11.55
2019-04-14T23:24:48.274Z,11.67
2019-04-14T23:29:57.132Z,11.28
2019-04-14T23:35:06.068Z,10.68
2019-04-14T23:40:14.947Z,12.03
2019-04-14T23:45:23.798Z,11.16
2019-04-14T23:50:32.644Z,12.55
2019-04-14T23:55:41.528Z,12.41
